Time,TemperatureF,DewpointF,PressureIn,WindDirection,WindDirectionDegrees,WindSpeedMPH,WindSpeedGustMPH,Humidity,HourlyPrecipIn,Conditions,Clouds,dailyrainin,SoftwareType,DateUTC
2013-07-16 00:01:00,81.0,73.0,30.06,SSE,149,5.0,5.0,76,0.00,,,1.40,,2013-07-16 04:01:00,
2013-07-16 01:32:00,81.0,72.0,30.05,SE,139,3.0,4.0,75,0.00,,,3.70,,2013-07-16 05:32:00,
2013-07-16 01:52:00,80.0,71.0,30.05,SE,145,2.0,2.0,74,0.00,,,3.70,,2013-07-16 05:52:00,
2013-07-16 02:01:00,80.0,71.0,30.05,ESE,120,5.0,8.0,74,0.00,,,3.70,,2013-07-16 06:01:00,
2013-07-16 02:52:00,80.0,71.0,30.04,SE,129,4.0,4.0,74,0.00,,,3.70,,2013-07-16 06:52:00,
2013-07-16 03:01:00,80.0,71.0,30.04,SE,134,6.0,6.0,75,0.00,,,3.70,,2013-07-16 07:01:00,
2013-07-16 03:11:00,80.0,72.0,30.04,ESE,113,6.0,6.0,77,0.00,,,3.70,,2013-07-16 07:11:00,
2013-07-16 03:32:00,80.0,72.0,30.04,ESE,117,6.0,6.0,77,0.00,,,3.70,,2013-07-16 07:32:00,
2013-07-16 03:43:00,80.0,70.0,30.04,ESE,117,4.0,5.0,72,0.00,,,3.70,,2013-07-16 07:43:00,
2013-07-16 03:52:00,79.0,69.0,30.04,ESE,118,5.0,5.0,72,0.00,,,3.70,,2013-07-16 07:52:00,
2013-07-16 04:01:00,79.0,69.0,30.03,East,97,4.0,4.0,71,0.00,,,3.70,,2013-07-16 08:01:00,
2013-07-16 04:11:00,78.0,69.0,30.03,East,101,1.0,0.0,75,0.00,,,3.70,,2013-07-16 08:11:00,
2013-07-16 04:22:00,78.0,71.0,30.03,ESE,108,2.0,3.0,78,0.00,,,3.70,,2013-07-16 08:22:00,
2013-07-16 04:32:00,78.0,71.0,30.03,ESE,110,2.0,2.0,80,0.00,,,3.70,,2013-07-16 08:32:00,
2013-07-16 04:43:00,74.0,72.0,30.04,South,191,10.0,11.0,92,0.00,,,3.70,,2013-07-16 08:43:00,
2013-07-16 04:52:00,73.0,71.0,30.04,East,101,4.0,4.0,94,0.00,,,3.70,,2013-07-16 08:52:00,
2013-07-16 05:01:00,73.0,70.0,30.04,NNE,30,6.0,9.0,91,0.00,,,3.70,,2013-07-16 09:01:00,
2013-07-16 05:32:00,74.0,72.0,30.02,NNE,31,1.0,2.0,92,3.10,,,3.70,,2013-07-16 09:32:00,
2013-07-16 05:42:00,74.0,72.0,30.03,NNE,30,2.0,2.0,93,3.10,,,3.70,,2013-07-16 09:42:00,
2013-07-16 05:52:00,74.0,72.0,30.03,East,82,1.0,2.0,93,3.10,,,3.70,,2013-07-16 09:52:00,
2013-07-16 06:11:00,74.0,72.0,30.03,SE,138,5.0,6.0,94,3.10,,,3.70,,2013-07-16 10:11:00,
2013-07-16 06:43:00,76.0,71.0,30.03,ESE,103,4.0,4.0,85,0.00,,,3.70,,2013-07-16 10:43:00,
2013-07-16 06:52:00,76.0,71.0,30.03,ESE,104,2.0,3.0,85,0.00,,,3.70,,2013-07-16 10:52:00,
2013-07-16 07:42:00,78.0,73.0,30.04,ENE,75,4.0,4.0,84,0.00,,,3.70,,2013-07-16 11:42:00,
2013-07-16 08:01:00,79.0,73.0,30.04,ENE,58,3.0,3.0,81,0.00,,,3.70,,2013-07-16 12:01:00,
2013-07-16 10:02:00,75.0,72.0,30.09,SE,127,8.0,11.0,89,0.00,,,3.70,,2013-07-16 14:02:00,
2013-07-16 10:52:00,77.0,70.0,30.10,East,98,9.0,11.0,79,0.20,,,3.70,,2013-07-16 14:52:00,
2013-07-16 12:32:00,75.0,72.0,30.11,East,100,6.0,11.0,89,0.20,,,3.70,,2013-07-16 16:32:00,
2013-07-16 12:43:00,75.0,70.0,30.12,SE,128,7.0,11.0,85,0.20,,,3.70,,2013-07-16 16:43:00,
2013-07-16 12:52:00,75.0,70.0,30.12,SE,128,7.0,11.0,85,0.20,,,3.70,,2013-07-16 16:52:00,
2013-07-16 13:43:00,75.0,69.0,30.10,South,184,6.0,6.0,83,0.10,,,3.70,,2013-07-16 17:43:00,
2013-07-16 14:01:00,76.0,71.0,30.10,SE,136,5.0,5.0,84,0.10,,,3.70,,2013-07-16 18:01:00,
2013-07-16 14:22:00,77.0,71.0,30.09,South,170,5.0,5.0,82,0.10,,,3.70,,2013-07-16 18:22:00,
2013-07-16 14:43:00,78.0,71.0,30.08,ENE,75,3.0,6.0,80,0.10,,,3.70,,2013-07-16 18:43:00,
2013-07-16 14:52:00,78.0,71.0,30.08,SE,124,4.0,4.0,80,0.10,,,3.70,,2013-07-16 18:52:00,
2013-07-16 15:22:00,80.0,71.0,30.07,SSE,165,6.0,6.0,74,0.00,,,3.70,,2013-07-16 19:22:00,
2013-07-16 15:43:00,80.0,70.0,30.07,East,91,3.0,6.0,71,0.00,,,3.70,,2013-07-16 19:43:00,
2013-07-16 16:32:00,81.0,69.0,30.05,SE,135,5.0,5.0,68,0.00,,,3.70,,2013-07-16 20:32:00,
2013-07-16 16:43:00,81.0,71.0,30.05,ESE,110,4.0,5.0,71,0.00,,,3.70,,2013-07-16 20:43:00,
2013-07-16 16:52:00,81.0,71.0,30.05,ENE,60,4.0,4.0,71,0.00,,,3.70,,2013-07-16 20:52:00,
2013-07-16 17:11:00,82.0,71.0,30.05,NE,53,5.0,5.0,69,0.00,,,3.70,,2013-07-16 21:11:00,
2013-07-16 17:22:00,82.0,70.0,30.05,East,91,5.0,5.0,67,0.00,,,3.70,,2013-07-16 21:22:00,
2013-07-16 17:52:00,82.0,69.0,30.05,ESE,105,7.0,7.0,65,0.00,,,3.70,,2013-07-16 21:52:00,
2013-07-16 18:01:00,82.0,69.0,30.05,SE,138,6.0,6.0,65,0.00,,,3.70,,2013-07-16 22:01:00,
2013-07-16 18:43:00,83.0,71.0,30.06,East,100,3.0,8.0,68,0.00,,,3.70,,2013-07-16 22:43:00,
2013-07-16 18:52:00,82.0,71.0,30.06,ENE,72,6.0,7.0,70,0.00,,,3.70,,2013-07-16 22:52:00,
2013-07-16 19:11:00,82.0,71.0,30.06,East,79,5.0,8.0,69,0.00,,,3.70,,2013-07-16 23:11:00,
2013-07-16 19:32:00,82.0,71.0,30.06,SE,142,6.0,6.0,70,0.00,,,3.70,,2013-07-16 23:32:00,
2013-07-16 19:43:00,81.0,71.0,30.07,East,89,4.0,4.0,71,0.00,,,3.70,,2013-07-16 23:43:00,
2013-07-16 20:01:00,81.0,71.0,30.07,SE,135,3.0,7.0,71,0.00,,,3.70,,2013-07-17 00:01:00,
2013-07-16 20:11:00,81.0,71.0,30.07,ESE,111,3.0,3.0,71,0.00,,,3.70,,2013-07-17 00:11:00,
2013-07-16 20:33:00,81.0,71.0,30.05,ESE,113,3.0,3.0,72,0.00,,,3.70,,2013-07-17 00:33:00,
2013-07-16 20:42:00,81.0,71.0,30.06,ESE,103,0.0,0.0,72,0.00,,,3.70,,2013-07-17 00:42:00,
2013-07-16 20:52:00,80.0,72.0,30.06,East,94,2.0,3.0,78,0.00,,,3.70,,2013-07-17 00:52:00,
2013-07-16 21:01:00,79.0,73.0,30.06,North,6,2.0,4.0,83,0.00,,,3.70,,2013-07-17 01:01:00,
2013-07-16 21:11:00,79.0,73.0,30.06,ENE,73,3.0,3.0,83,0.00,,,3.70,,2013-07-17 01:11:00,
2013-07-16 21:22:00,79.0,74.0,30.07,ENE,59,4.0,4.0,84,0.10,,,3.70,,2013-07-17 01:22:00,
2013-07-16 21:32:00,77.0,71.0,30.09,NE,52,3.0,3.0,82,0.10,,,3.70,,2013-07-17 01:32:00,
2013-07-16 21:43:00,77.0,71.0,30.09,NE,42,1.0,2.0,83,0.10,,,3.70,,2013-07-17 01:43:00,
2013-07-16 21:53:00,77.0,72.0,30.09,NE,35,3.0,3.0,84,0.10,,,3.70,,2013-07-17 01:53:00,
2013-07-16 22:43:00,78.0,71.0,30.09,East,82,3.0,3.0,80,0.10,,,3.70,,2013-07-17 02:43:00,
2013-07-16 22:53:00,79.0,72.0,30.09,East,87,2.0,2.0,80,0.10,,,3.70,,2013-07-17 02:53:00,
2013-07-16 23:43:00,79.0,72.0,30.10,East,84,4.0,6.0,78,0.00,,,3.70,,2013-07-17 03:43:00,